sensor_id;sensor_type;location;lat;lon;timestamp;P1;durP1;ratioP1;P2;durP2;ratioP2
56997;SDS011;42890;44.244;22.530;2023-07-28T00:02:06;5.25;;;3.38;;
56997;SDS011;42890;44.244;22.530;2023-07-28T00:04:36;4.53;;;3.30;;
56997;SDS011;42890;44.244;22.530;2023-07-28T00:07:02;5.00;;;3.20;;
56997;SDS011;42890;44.244;22.530;2023-07-28T00:09:29;4.20;;;3.55;;
56997;SDS011;42890;44.244;22.530;2023-07-28T00:11:56;5.30;;;3.25;;
56997;SDS011;42890;44.244;22.530;2023-07-28T00:14:22;4.28;;;3.55;;
56997;SDS011;42890;44.244;22.530;2023-07-28T00:16:50;3.83;;;3.42;;
56997;SDS011;42890;44.244;22.530;2023-07-28T00:19:16;5.43;;;3.47;;
56997;SDS011;42890;44.244;22.530;2023-07-28T00:21:42;5.35;;;3.60;;
56997;SDS011;42890;44.244;22.530;2023-07-28T00:24:08;6.75;;;3.83;;
56997;SDS011;42890;44.244;22.530;2023-07-28T00:26:34;4.93;;;3.67;;
56997;SDS011;42890;44.244;22.530;2023-07-28T00:29:01;4.03;;;3.70;;
56997;SDS011;42890;44.244;22.530;2023-07-28T00:31:30;5.40;;;3.85;;
56997;SDS011;42890;44.244;22.530;2023-07-28T00:33:56;5.30;;;3.85;;
56997;SDS011;42890;44.244;22.530;2023-07-28T00:36:22;5.65;;;3.40;;
56997;SDS011;42890;44.244;22.530;2023-07-28T00:38:48;11.02;;;3.45;;
56997;SDS011;42890;44.244;22.530;2023-07-28T00:41:14;8.15;;;3.40;;
56997;SDS011;42890;44.244;22.530;2023-07-28T00:43:40;5.55;;;3.75;;
56997;SDS011;42890;44.244;22.530;2023-07-28T00:46:07;4.85;;;3.45;;
56997;SDS011;42890;44.244;22.530;2023-07-28T00:48:33;5.70;;;3.70;;
56997;SDS011;42890;44.244;22.530;2023-07-28T00:51:00;7.80;;;3.83;;
56997;SDS011;42890;44.244;22.530;2023-07-28T00:53:26;4.35;;;3.58;;
56997;SDS011;42890;44.244;22.530;2023-07-28T00:55:52;4.80;;;3.97;;
56997;SDS011;42890;44.244;22.530;2023-07-28T00:58:18;5.90;;;3.90;;
56997;SDS011;42890;44.244;22.530;2023-07-28T01:00:45;4.50;;;4.00;;
56997;SDS011;42890;44.244;22.530;2023-07-28T01:03:12;4.68;;;4.28;;
56997;SDS011;42890;44.244;22.530;2023-07-28T01:05:44;6.95;;;3.67;;
56997;SDS011;42890;44.244;22.530;2023-07-28T01:10:58;4.15;;;3.70;;
56997;SDS011;42890;44.244;22.530;2023-07-28T01:13:24;6.90;;;3.92;;
56997;SDS011;42890;44.244;22.530;2023-07-28T01:15:50;5.15;;;4.07;;
56997;SDS011;42890;44.244;22.530;2023-07-28T01:18:17;4.07;;;3.58;;
56997;SDS011;42890;44.244;22.530;2023-07-28T01:20:43;4.75;;;3.38;;
56997;SDS011;42890;44.244;22.530;2023-07-28T01:23:36;5.15;;;3.88;;
56997;SDS011;42890;44.244;22.530;2023-07-28T01:26:05;4.30;;;3.35;;
56997;SDS011;42890;44.244;22.530;2023-07-28T01:28:34;3.90;;;3.60;;
56997;SDS011;42890;44.244;22.530;2023-07-28T01:31:02;3.10;;;2.80;;
56997;SDS011;42890;44.244;22.530;2023-07-28T01:33:28;4.40;;;4.00;;
56997;SDS011;42890;44.244;22.530;2023-07-28T01:35:55;3.92;;;3.53;;
56997;SDS011;42890;44.244;22.530;2023-07-28T01:38:21;5.38;;;3.60;;
56997;SDS011;42890;44.244;22.530;2023-07-28T01:40:47;3.75;;;3.45;;
56997;SDS011;42890;44.244;22.530;2023-07-28T01:43:13;4.15;;;3.85;;
56997;SDS011;42890;44.244;22.530;2023-07-28T01:45:39;4.68;;;4.28;;
56997;SDS011;42890;44.244;22.530;2023-07-28T01:48:06;5.60;;;4.38;;
56997;SDS011;42890;44.244;22.530;2023-07-28T01:50:34;5.78;;;3.95;;
56997;SDS011;42890;44.244;22.530;2023-07-28T01:53:00;7.70;;;4.30;;
56997;SDS011;42890;44.244;22.530;2023-07-28T01:55:26;4.90;;;4.47;;
56997;SDS011;42890;44.244;22.530;2023-07-28T01:57:56;18.67;;;4.45;;
56997;SDS011;42890;44.244;22.530;2023-07-28T02:00:23;4.72;;;4.25;;
56997;SDS011;42890;44.244;22.530;2023-07-28T02:02:49;4.53;;;4.13;;
56997;SDS011;42890;44.244;22.530;2023-07-28T02:05:15;7.05;;;4.40;;
56997;SDS011;42890;44.244;22.530;2023-07-28T02:07:42;4.82;;;4.10;;
56997;SDS011;42890;44.244;22.530;2023-07-28T02:10:08;5.75;;;4.50;;
56997;SDS011;42890;44.244;22.530;2023-07-28T02:12:35;4.10;;;3.80;;
56997;SDS011;42890;44.244;22.530;2023-07-28T02:15:02;6.85;;;4.68;;
56997;SDS011;42890;44.244;22.530;2023-07-28T02:17:28;6.43;;;5.47;;
56997;SDS011;42890;44.244;22.530;2023-07-28T02:19:54;5.20;;;4.70;;
56997;SDS011;42890;44.244;22.530;2023-07-28T02:22:21;5.03;;;4.57;;
56997;SDS011;42890;44.244;22.530;2023-07-28T02:24:47;7.05;;;4.15;;
56997;SDS011;42890;44.244;22.530;2023-07-28T02:27:13;4.32;;;3.92;;
56997;SDS011;42890;44.244;22.530;2023-07-28T02:29:39;7.45;;;4.25;;
56997;SDS011;42890;44.244;22.530;2023-07-28T02:32:07;6.93;;;3.95;;
56997;SDS011;42890;44.244;22.530;2023-07-28T02:34:33;6.82;;;3.97;;
56997;SDS011;42890;44.244;22.530;2023-07-28T02:36:59;4.53;;;4.13;;
56997;SDS011;42890;44.244;22.530;2023-07-28T02:39:25;8.57;;;4.18;;
56997;SDS011;42890;44.244;22.530;2023-07-28T02:41:51;5.13;;;4.25;;
56997;SDS011;42890;44.244;22.530;2023-07-28T02:44:18;4.70;;;4.30;;
56997;SDS011;42890;44.244;22.530;2023-07-28T02:46:44;5.50;;;4.18;;
56997;SDS011;42890;44.244;22.530;2023-07-28T02:49:10;5.10;;;4.40;;
56997;SDS011;42890;44.244;22.530;2023-07-28T02:51:36;9.50;;;4.40;;
56997;SDS011;42890;44.244;22.530;2023-07-28T02:54:02;5.75;;;4.07;;
56997;SDS011;42890;44.244;22.530;2023-07-28T02:56:28;4.90;;;4.10;;
56997;SDS011;42890;44.244;22.530;2023-07-28T02:58:59;4.15;;;3.63;;
56997;SDS011;42890;44.244;22.530;2023-07-28T03:01:26;4.38;;;3.97;;
56997;SDS011;42890;44.244;22.530;2023-07-28T03:03:53;4.32;;;4.03;;
56997;SDS011;42890;44.244;22.530;2023-07-28T03:06:19;6.95;;;3.92;;
56997;SDS011;42890;44.244;22.530;2023-07-28T03:08:45;6.03;;;4.00;;
56997;SDS011;42890;44.244;22.530;2023-07-28T03:11:11;5.88;;;3.42;;
56997;SDS011;42890;44.244;22.530;2023-07-28T03:13:37;4.22;;;3.70;;
56997;SDS011;42890;44.244;22.530;2023-07-28T03:16:03;4.70;;;3.70;;
56997;SDS011;42890;44.244;22.530;2023-07-28T03:18:29;12.30;;;4.28;;
56997;SDS011;42890;44.244;22.530;2023-07-28T03:20:56;4.45;;;4.05;;
56997;SDS011;42890;44.244;22.530;2023-07-28T03:23:22;6.45;;;4.00;;
56997;SDS011;42890;44.244;22.530;2023-07-28T03:25:49;8.07;;;3.95;;
56997;SDS011;42890;44.244;22.530;2023-07-28T03:28:15;4.60;;;4.20;;
56997;SDS011;42890;44.244;22.530;2023-07-28T03:30:42;7.22;;;4.35;;
56997;SDS011;42890;44.244;22.530;2023-07-28T03:33:08;7.15;;;4.07;;
56997;SDS011;42890;44.244;22.530;2023-07-28T03:35:34;6.15;;;4.15;;
56997;SDS011;42890;44.244;22.530;2023-07-28T03:38:00;9.10;;;4.13;;
56997;SDS011;42890;44.244;22.530;2023-07-28T03:40:26;4.50;;;4.10;;
56997;SDS011;42890;44.244;22.530;2023-07-28T03:42:52;5.40;;;4.80;;
56997;SDS011;42890;44.244;22.530;2023-07-28T03:45:19;5.80;;;4.75;;
56997;SDS011;42890;44.244;22.530;2023-07-28T03:47:45;5.90;;;4.22;;
56997;SDS011;42890;44.244;22.530;2023-07-28T03:50:11;4.80;;;4.40;;
56997;SDS011;42890;44.244;22.530;2023-07-28T03:52:37;7.03;;;4.65;;
56997;SDS011;42890;44.244;22.530;2023-07-28T03:55:03;4.88;;;4.10;;
56997;SDS011;42890;44.244;22.530;2023-07-28T03:57:30;6.30;;;4.53;;
56997;SDS011;42890;44.244;22.530;2023-07-28T03:59:56;5.60;;;4.90;;
56997;SDS011;42890;44.244;22.530;2023-07-28T04:02:22;7.13;;;5.78;;
56997;SDS011;42890;44.244;22.530;2023-07-28T04:04:53;11.25;;;5.93;;
56997;SDS011;42890;44.244;22.530;2023-07-28T04:07:19;6.38;;;5.53;;
56997;SDS011;42890;44.244;22.530;2023-07-28T04:09:45;6.65;;;4.88;;
56997;SDS011;42890;44.244;22.530;2023-07-28T04:12:11;10.80;;;9.13;;
56997;SDS011;42890;44.244;22.530;2023-07-28T04:14:38;10.30;;;7.47;;
56997;SDS011;42890;44.244;22.530;2023-07-28T04:17:04;7.90;;;7.10;;
56997;SDS011;42890;44.244;22.530;2023-07-28T04:19:30;8.05;;;7.32;;
56997;SDS011;42890;44.244;22.530;2023-07-28T04:21:56;6.80;;;6.10;;
56997;SDS011;42890;44.244;22.530;2023-07-28T04:24:23;8.10;;;7.40;;
56997;SDS011;42890;44.244;22.530;2023-07-28T04:26:50;8.02;;;6.28;;
56997;SDS011;42890;44.244;22.530;2023-07-28T04:29:16;7.40;;;6.35;;
56997;SDS011;42890;44.244;22.530;2023-07-28T04:31:42;7.65;;;5.85;;
56997;SDS011;42890;44.244;22.530;2023-07-28T04:34:09;6.28;;;5.72;;
56997;SDS011;42890;44.244;22.530;2023-07-28T04:36:35;11.20;;;5.40;;
56997;SDS011;42890;44.244;22.530;2023-07-28T04:39:01;10.52;;;5.93;;
56997;SDS011;42890;44.244;22.530;2023-07-28T04:41:27;8.73;;;5.63;;
56997;SDS011;42890;44.244;22.530;2023-07-28T04:43:53;9.50;;;5.47;;
56997;SDS011;42890;44.244;22.530;2023-07-28T04:46:19;8.10;;;5.10;;
56997;SDS011;42890;44.244;22.530;2023-07-28T04:48:46;10.98;;;4.80;;
56997;SDS011;42890;44.244;22.530;2023-07-28T04:51:12;8.43;;;5.07;;
56997;SDS011;42890;44.244;22.530;2023-07-28T04:53:38;6.53;;;4.78;;
56997;SDS011;42890;44.244;22.530;2023-07-28T04:56:04;5.75;;;4.20;;
56997;SDS011;42890;44.244;22.530;2023-07-28T04:58:30;5.00;;;4.50;;
56997;SDS011;42890;44.244;22.530;2023-07-28T05:00:56;8.98;;;5.13;;
56997;SDS011;42890;44.244;22.530;2023-07-28T05:03:22;8.27;;;4.53;;
56997;SDS011;42890;44.244;22.530;2023-07-28T05:05:49;7.07;;;4.93;;
56997;SDS011;42890;44.244;22.530;2023-07-28T05:08:16;9.65;;;4.93;;
56997;SDS011;42890;44.244;22.530;2023-07-28T05:10:42;5.65;;;4.03;;
56997;SDS011;42890;44.244;22.530;2023-07-28T05:13:08;5.43;;;4.18;;
56997;SDS011;42890;44.244;22.530;2023-07-28T05:15:34;5.25;;;4.05;;
56997;SDS011;42890;44.244;22.530;2023-07-28T05:18:00;5.30;;;3.72;;
56997;SDS011;42890;44.244;22.530;2023-07-28T05:20:26;7.15;;;4.20;;
56997;SDS011;42890;44.244;22.530;2023-07-28T05:22:53;4.18;;;3.70;;
56997;SDS011;42890;44.244;22.530;2023-07-28T05:25:19;6.55;;;4.22;;
56997;SDS011;42890;44.244;22.530;2023-07-28T05:27:45;7.25;;;4.10;;
56997;SDS011;42890;44.244;22.530;2023-07-28T05:30:11;6.80;;;4.05;;
56997;SDS011;42890;44.244;22.530;2023-07-28T05:32:37;7.70;;;4.32;;
56997;SDS011;42890;44.244;22.530;2023-07-28T05:35:03;5.63;;;4.07;;
56997;SDS011;42890;44.244;22.530;2023-07-28T05:37:30;5.05;;;4.00;;
56997;SDS011;42890;44.244;22.530;2023-07-28T05:39:56;4.13;;;3.83;;
56997;SDS011;42890;44.244;22.530;2023-07-28T05:42:22;5.63;;;3.72;;
56997;SDS011;42890;44.244;22.530;2023-07-28T05:44:49;5.13;;;3.70;;
56997;SDS011;42890;44.244;22.530;2023-07-28T05:47:17;9.02;;;4.30;;
56997;SDS011;42890;44.244;22.530;2023-07-28T05:49:43;10.15;;;4.22;;
56997;SDS011;42890;44.244;22.530;2023-07-28T05:52:09;5.88;;;4.15;;
56997;SDS011;42890;44.244;22.530;2023-07-28T05:54:35;4.88;;;4.38;;
56997;SDS011;42890;44.244;22.530;2023-07-28T05:57:01;12.73;;;4.10;;
56997;SDS011;42890;44.244;22.530;2023-07-28T05:59:27;6.72;;;4.28;;
56997;SDS011;42890;44.244;22.530;2023-07-28T06:01:54;4.70;;;4.25;;
56997;SDS011;42890;44.244;22.530;2023-07-28T06:04:20;4.85;;;3.83;;
56997;SDS011;42890;44.244;22.530;2023-07-28T06:06:47;5.70;;;4.30;;
56997;SDS011;42890;44.244;22.530;2023-07-28T06:09:13;5.65;;;3.97;;
56997;SDS011;42890;44.244;22.530;2023-07-28T06:11:39;7.18;;;4.18;;
56997;SDS011;42890;44.244;22.530;2023-07-28T06:14:05;12.82;;;4.47;;
56997;SDS011;42890;44.244;22.530;2023-07-28T06:16:31;11.63;;;4.38;;
56997;SDS011;42890;44.244;22.530;2023-07-28T06:18:57;6.15;;;3.67;;
56997;SDS011;42890;44.244;22.530;2023-07-28T06:21:24;8.63;;;4.32;;
56997;SDS011;42890;44.244;22.530;2023-07-28T06:23:50;8.20;;;3.65;;
56997;SDS011;42890;44.244;22.530;2023-07-28T06:26:16;5.93;;;3.50;;
56997;SDS011;42890;44.244;22.530;2023-07-28T06:28:42;4.35;;;3.88;;
56997;SDS011;42890;44.244;22.530;2023-07-28T06:31:08;4.07;;;3.65;;
56997;SDS011;42890;44.244;22.530;2023-07-28T06:33:35;8.23;;;3.78;;
56997;SDS011;42890;44.244;22.530;2023-07-28T06:36:02;5.35;;;3.70;;
56997;SDS011;42890;44.244;22.530;2023-07-28T06:38:28;7.50;;;3.45;;
56997;SDS011;42890;44.244;22.530;2023-07-28T06:40:54;3.75;;;3.22;;
56997;SDS011;42890;44.244;22.530;2023-07-28T06:43:20;6.80;;;3.47;;
56997;SDS011;42890;44.244;22.530;2023-07-28T06:45:46;4.38;;;3.28;;
56997;SDS011;42890;44.244;22.530;2023-07-28T06:48:13;4.15;;;3.33;;
56997;SDS011;42890;44.244;22.530;2023-07-28T06:50:39;4.60;;;3.70;;
56997;SDS011;42890;44.244;22.530;2023-07-28T06:53:05;4.80;;;3.42;;
56997;SDS011;42890;44.244;22.530;2023-07-28T06:55:31;6.00;;;3.60;;
56997;SDS011;42890;44.244;22.530;2023-07-28T06:57:57;7.40;;;3.60;;
56997;SDS011;42890;44.244;22.530;2023-07-28T07:00:24;4.75;;;3.50;;
56997;SDS011;42890;44.244;22.530;2023-07-28T07:02:50;6.30;;;3.05;;
56997;SDS011;42890;44.244;22.530;2023-07-28T07:05:16;5.03;;;3.35;;
56997;SDS011;42890;44.244;22.530;2023-07-28T07:07:42;3.78;;;3.20;;
56997;SDS011;42890;44.244;22.530;2023-07-28T07:10:08;5.43;;;2.90;;
56997;SDS011;42890;44.244;22.530;2023-07-28T07:12:35;4.30;;;3.10;;
56997;SDS011;42890;44.244;22.530;2023-07-28T07:15:02;9.32;;;3.13;;
56997;SDS011;42890;44.244;22.530;2023-07-28T07:17:28;2.95;;;2.60;;
56997;SDS011;42890;44.244;22.530;2023-07-28T07:19:54;4.95;;;2.95;;
56997;SDS011;42890;44.244;22.530;2023-07-28T07:22:20;3.78;;;2.58;;
56997;SDS011;42890;44.244;22.530;2023-07-28T07:24:46;2.83;;;2.15;;
56997;SDS011;42890;44.244;22.530;2023-07-28T07:27:12;4.60;;;2.90;;
56997;SDS011;42890;44.244;22.530;2023-07-28T07:29:38;5.32;;;2.67;;
56997;SDS011;42890;44.244;22.530;2023-07-28T07:32:05;7.22;;;2.83;;
56997;SDS011;42890;44.244;22.530;2023-07-28T07:34:33;6.65;;;2.75;;
56997;SDS011;42890;44.244;22.530;2023-07-28T07:36:59;11.55;;;2.78;;
56997;SDS011;42890;44.244;22.530;2023-07-28T07:39:26;6.15;;;2.78;;
56997;SDS011;42890;44.244;22.530;2023-07-28T07:41:52;3.42;;;2.78;;
56997;SDS011;42890;44.244;22.530;2023-07-28T07:44:19;6.15;;;2.63;;
56997;SDS011;42890;44.244;22.530;2023-07-28T07:46:45;2.97;;;2.67;;
56997;SDS011;42890;44.244;22.530;2023-07-28T07:49:11;4.97;;;2.63;;
56997;SDS011;42890;44.244;22.530;2023-07-28T07:51:38;6.75;;;2.47;;
56997;SDS011;42890;44.244;22.530;2023-07-28T07:54:04;5.10;;;2.60;;
56997;SDS011;42890;44.244;22.530;2023-07-28T07:56:30;6.95;;;2.25;;
56997;SDS011;42890;44.244;22.530;2023-07-28T07:58:56;4.68;;;2.50;;
56997;SDS011;42890;44.244;22.530;2023-07-28T08:01:22;4.40;;;2.83;;
56997;SDS011;42890;44.244;22.530;2023-07-28T08:03:49;3.33;;;2.47;;
56997;SDS011;42890;44.244;22.530;2023-07-28T08:06:15;4.97;;;2.72;;
56997;SDS011;42890;44.244;22.530;2023-07-28T08:08:42;7.50;;;2.50;;
56997;SDS011;42890;44.244;22.530;2023-07-28T08:11:08;3.35;;;2.60;;
56997;SDS011;42890;44.244;22.530;2023-07-28T08:13:34;5.10;;;2.38;;
56997;SDS011;42890;44.244;22.530;2023-07-28T08:16:00;4.35;;;2.45;;
56997;SDS011;42890;44.244;22.530;2023-07-28T08:18:27;5.78;;;2.70;;
56997;SDS011;42890;44.244;22.530;2023-07-28T08:20:53;4.53;;;2.78;;
56997;SDS011;42890;44.244;22.530;2023-07-28T08:23:19;3.55;;;2.40;;
56997;SDS011;42890;44.244;22.530;2023-07-28T08:25:45;3.75;;;2.55;;
56997;SDS011;42890;44.244;22.530;2023-07-28T08:28:11;2.58;;;2.30;;
56997;SDS011;42890;44.244;22.530;2023-07-28T08:30:37;5.82;;;2.92;;
56997;SDS011;42890;44.244;22.530;2023-07-28T08:33:03;4.90;;;2.13;;
56997;SDS011;42890;44.244;22.530;2023-07-28T08:35:29;3.50;;;2.58;;
56997;SDS011;42890;44.244;22.530;2023-07-28T08:37:55;6.82;;;2.30;;
56997;SDS011;42890;44.244;22.530;2023-07-28T08:40:22;8.65;;;2.80;;
56997;SDS011;42890;44.244;22.530;2023-07-28T08:42:49;2.67;;;2.47;;
56997;SDS011;42890;44.244;22.530;2023-07-28T08:45:17;5.75;;;2.65;;
56997;SDS011;42890;44.244;22.530;2023-07-28T08:47:43;6.20;;;2.33;;
56997;SDS011;42890;44.244;22.530;2023-07-28T08:50:10;6.45;;;2.60;;
56997;SDS011;42890;44.244;22.530;2023-07-28T08:52:36;5.78;;;2.70;;
56997;SDS011;42890;44.244;22.530;2023-07-28T08:55:03;5.25;;;2.40;;
56997;SDS011;42890;44.244;22.530;2023-07-28T08:57:29;3.33;;;2.65;;
56997;SDS011;42890;44.244;22.530;2023-07-28T08:59:55;5.20;;;2.67;;
56997;SDS011;42890;44.244;22.530;2023-07-28T09:02:21;3.60;;;2.53;;
56997;SDS011;42890;44.244;22.530;2023-07-28T09:04:48;5.68;;;3.05;;
56997;SDS011;42890;44.244;22.530;2023-07-28T09:07:14;8.35;;;3.38;;
56997;SDS011;42890;44.244;22.530;2023-07-28T09:09:41;5.10;;;2.70;;
56997;SDS011;42890;44.244;22.530;2023-07-28T09:12:07;5.60;;;2.60;;
56997;SDS011;42890;44.244;22.530;2023-07-28T09:14:36;4.57;;;2.90;;
56997;SDS011;42890;44.244;22.530;2023-07-28T09:17:06;6.50;;;2.80;;
56997;SDS011;42890;44.244;22.530;2023-07-28T09:19:33;3.75;;;2.63;;
56997;SDS011;42890;44.244;22.530;2023-07-28T09:21:59;3.67;;;2.53;;
56997;SDS011;42890;44.244;22.530;2023-07-28T09:24:32;5.22;;;2.90;;
56997;SDS011;42890;44.244;22.530;2023-07-28T09:26:59;3.70;;;2.60;;
56997;SDS011;42890;44.244;22.530;2023-07-28T09:29:25;3.60;;;2.50;;
56997;SDS011;42890;44.244;22.530;2023-07-28T09:31:53;2.90;;;2.20;;
56997;SDS011;42890;44.244;22.530;2023-07-28T09:34:26;2.85;;;2.30;;
56997;SDS011;42890;44.244;22.530;2023-07-28T09:36:53;2.92;;;2.55;;
56997;SDS011;42890;44.244;22.530;2023-07-28T09:39:19;5.40;;;2.65;;
56997;SDS011;42890;44.244;22.530;2023-07-28T09:41:46;3.53;;;2.40;;
56997;SDS011;42890;44.244;22.530;2023-07-28T09:44:12;4.78;;;2.90;;
56997;SDS011;42890;44.244;22.530;2023-07-28T09:46:45;3.45;;;2.33;;
56997;SDS011;42890;44.244;22.530;2023-07-28T09:49:15;2.60;;;2.40;;
56997;SDS011;42890;44.244;22.530;2023-07-28T09:51:41;2.08;;;1.95;;
56997;SDS011;42890;44.244;22.530;2023-07-28T09:54:17;4.07;;;2.55;;
56997;SDS011;42890;44.244;22.530;2023-07-28T09:56:50;4.45;;;2.20;;
56997;SDS011;42890;44.244;22.530;2023-07-28T09:59:17;4.05;;;2.50;;
56997;SDS011;42890;44.244;22.530;2023-07-28T10:01:44;2.88;;;2.05;;
56997;SDS011;42890;44.244;22.530;2023-07-28T10:04:11;3.58;;;2.20;;
56997;SDS011;42890;44.244;22.530;2023-07-28T10:06:37;2.40;;;2.20;;
56997;SDS011;42890;44.244;22.530;2023-07-28T10:09:04;4.13;;;2.50;;
56997;SDS011;42890;44.244;22.530;2023-07-28T10:11:31;2.40;;;2.20;;
56997;SDS011;42890;44.244;22.530;2023-07-28T10:13:57;3.70;;;2.42;;
56997;SDS011;42890;44.244;22.530;2023-07-28T10:16:44;3.42;;;2.38;;
56997;SDS011;42890;44.244;22.530;2023-07-28T10:19:09;3.25;;;2.28;;
56997;SDS011;42890;44.244;22.530;2023-07-28T10:21:39;3.72;;;2.40;;
56997;SDS011;42890;44.244;22.530;2023-07-28T10:24:07;2.50;;;2.30;;
56997;SDS011;42890;44.244;22.530;2023-07-28T10:29:09;3.92;;;2.28;;
56997;SDS011;42890;44.244;22.530;2023-07-28T10:31:35;2.22;;;2.00;;
56997;SDS011;42890;44.244;22.530;2023-07-28T10:34:01;2.55;;;1.80;;
56997;SDS011;42890;44.244;22.530;2023-07-28T10:39:14;2.08;;;1.90;;
56997;SDS011;42890;44.244;22.530;2023-07-28T10:42:01;3.03;;;2.08;;
56997;SDS011;42890;44.244;22.530;2023-07-28T10:44:28;2.70;;;1.80;;
56997;SDS011;42890;44.244;22.530;2023-07-28T10:46:54;3.45;;;1.70;;
56997;SDS011;42890;44.244;22.530;2023-07-28T10:49:21;3.58;;;2.00;;
56997;SDS011;42890;44.244;22.530;2023-07-28T10:51:47;3.78;;;2.40;;
56997;SDS011;42890;44.244;22.530;2023-07-28T10:54:14;3.53;;;2.08;;
56997;SDS011;42890;44.244;22.530;2023-07-28T10:56:43;2.45;;;2.10;;
56997;SDS011;42890;44.244;22.530;2023-07-28T10:59:10;6.20;;;2.15;;
56997;SDS011;42890;44.244;22.530;2023-07-28T11:01:37;2.20;;;2.00;;
56997;SDS011;42890;44.244;22.530;2023-07-28T11:04:07;5.55;;;2.47;;
56997;SDS011;42890;44.244;22.530;2023-07-28T11:06:34;3.38;;;1.92;;
56997;SDS011;42890;44.244;22.530;2023-07-28T11:09:00;2.17;;;1.90;;
56997;SDS011;42890;44.244;22.530;2023-07-28T11:11:27;6.65;;;2.22;;
56997;SDS011;42890;44.244;22.530;2023-07-28T11:13:53;2.25;;;2.03;;
56997;SDS011;42890;44.244;22.530;2023-07-28T11:16:20;2.80;;;2.10;;
56997;SDS011;42890;44.244;22.530;2023-07-28T11:18:46;1.92;;;1.83;;
56997;SDS011;42890;44.244;22.530;2023-07-28T11:21:16;3.83;;;2.25;;
56997;SDS011;42890;44.244;22.530;2023-07-28T11:23:44;2.03;;;1.83;;
56997;SDS011;42890;44.244;22.530;2023-07-28T11:26:12;3.55;;;2.25;;
56997;SDS011;42890;44.244;22.530;2023-07-28T11:28:39;5.57;;;2.17;;
56997;SDS011;42890;44.244;22.530;2023-07-28T11:31:05;4.95;;;2.17;;
56997;SDS011;42890;44.244;22.530;2023-07-28T11:33:32;2.25;;;2.15;;
56997;SDS011;42890;44.244;22.530;2023-07-28T11:35:58;2.75;;;2.08;;
56997;SDS011;42890;44.244;22.530;2023-07-28T11:38:24;2.47;;;1.95;;
56997;SDS011;42890;44.244;22.530;2023-07-28T11:40:50;2.42;;;2.22;;
56997;SDS011;42890;44.244;22.530;2023-07-28T11:43:17;2.13;;;1.88;;
56997;SDS011;42890;44.244;22.530;2023-07-28T11:45:43;3.15;;;2.60;;
56997;SDS011;42890;44.244;22.530;2023-07-28T11:48:10;6.63;;;1.80;;
56997;SDS011;42890;44.244;22.530;2023-07-28T11:50:37;2.75;;;2.15;;
56997;SDS011;42890;44.244;22.530;2023-07-28T11:53:04;2.63;;;2.20;;
56997;SDS011;42890;44.244;22.530;2023-07-28T11:55:37;5.05;;;2.10;;
56997;SDS011;42890;44.244;22.530;2023-07-28T11:58:04;2.15;;;1.95;;
56997;SDS011;42890;44.244;22.530;2023-07-28T12:05:28;2.22;;;1.92;;
56997;SDS011;42890;44.244;22.530;2023-07-28T12:07:55;3.03;;;1.98;;
56997;SDS011;42890;44.244;22.530;2023-07-28T12:10:21;4.47;;;1.90;;
56997;SDS011;42890;44.244;22.530;2023-07-28T12:12:49;7.47;;;2.20;;
56997;SDS011;42890;44.244;22.530;2023-07-28T12:18:03;10.43;;;2.30;;
56997;SDS011;42890;44.244;22.530;2023-07-28T12:20:33;3.35;;;2.10;;
56997;SDS011;42890;44.244;22.530;2023-07-28T12:23:00;2.38;;;2.10;;
56997;SDS011;42890;44.244;22.530;2023-07-28T12:25:26;5.20;;;1.85;;
56997;SDS011;42890;44.244;22.530;2023-07-28T12:27:52;3.40;;;1.90;;
56997;SDS011;42890;44.244;22.530;2023-07-28T12:30:18;3.38;;;2.08;;
56997;SDS011;42890;44.244;22.530;2023-07-28T12:32:44;2.05;;;1.70;;
56997;SDS011;42890;44.244;22.530;2023-07-28T12:35:11;3.33;;;2.00;;
56997;SDS011;42890;44.244;22.530;2023-07-28T12:37:38;2.60;;;1.75;;
56997;SDS011;42890;44.244;22.530;2023-07-28T12:40:04;3.85;;;2.33;;
56997;SDS011;42890;44.244;22.530;2023-07-28T12:42:31;3.38;;;2.10;;
56997;SDS011;42890;44.244;22.530;2023-07-28T12:44:57;2.92;;;2.22;;
56997;SDS011;42890;44.244;22.530;2023-07-28T12:47:23;3.85;;;2.10;;
56997;SDS011;42890;44.244;22.530;2023-07-28T12:49:49;2.15;;;1.83;;
56997;SDS011;42890;44.244;22.530;2023-07-28T12:52:16;2.85;;;2.30;;
56997;SDS011;42890;44.244;22.530;2023-07-28T12:54:42;2.42;;;1.95;;
56997;SDS011;42890;44.244;22.530;2023-07-28T12:57:08;2.15;;;1.98;;
56997;SDS011;42890;44.244;22.530;2023-07-28T12:59:37;3.47;;;2.17;;
56997;SDS011;42890;44.244;22.530;2023-07-28T13:02:03;1.73;;;1.63;;
56997;SDS011;42890;44.244;22.530;2023-07-28T13:04:30;10.40;;;2.00;;
56997;SDS011;42890;44.244;22.530;2023-07-28T13:06:56;6.75;;;2.15;;
56997;SDS011;42890;44.244;22.530;2023-07-28T13:09:22;5.55;;;2.00;;
56997;SDS011;42890;44.244;22.530;2023-07-28T13:11:48;3.20;;;1.92;;
56997;SDS011;42890;44.244;22.530;2023-07-28T13:14:14;2.97;;;1.77;;
56997;SDS011;42890;44.244;22.530;2023-07-28T13:16:40;3.35;;;2.00;;
56997;SDS011;42890;44.244;22.530;2023-07-28T13:19:06;2.45;;;1.98;;
56997;SDS011;42890;44.244;22.530;2023-07-28T13:21:33;2.45;;;1.90;;
56997;SDS011;42890;44.244;22.530;2023-07-28T13:23:59;3.17;;;2.17;;
56997;SDS011;42890;44.244;22.530;2023-07-28T13:26:25;8.18;;;2.25;;
56997;SDS011;42890;44.244;22.530;2023-07-28T13:28:51;2.50;;;2.03;;
56997;SDS011;42890;44.244;22.530;2023-07-28T13:31:17;4.38;;;1.92;;
56997;SDS011;42890;44.244;22.530;2023-07-28T13:33:44;3.40;;;1.85;;
56997;SDS011;42890;44.244;22.530;2023-07-28T13:36:12;2.75;;;1.80;;
56997;SDS011;42890;44.244;22.530;2023-07-28T13:38:38;1.90;;;1.80;;
56997;SDS011;42890;44.244;22.530;2023-07-28T13:41:05;2.33;;;1.75;;
56997;SDS011;42890;44.244;22.530;2023-07-28T13:43:32;5.28;;;2.03;;
56997;SDS011;42890;44.244;22.530;2023-07-28T13:46:00;2.83;;;1.98;;
56997;SDS011;42890;44.244;22.530;2023-07-28T13:48:27;4.30;;;2.00;;
56997;SDS011;42890;44.244;22.530;2023-07-28T13:50:53;3.17;;;2.00;;
56997;SDS011;42890;44.244;22.530;2023-07-28T13:53:19;2.20;;;1.98;;
56997;SDS011;42890;44.244;22.530;2023-07-28T13:55:45;3.95;;;1.88;;
56997;SDS011;42890;44.244;22.530;2023-07-28T13:58:11;7.40;;;2.20;;
56997;SDS011;42890;44.244;22.530;2023-07-28T14:00:37;4.22;;;2.28;;
56997;SDS011;42890;44.244;22.530;2023-07-28T14:03:03;2.40;;;2.00;;
56997;SDS011;42890;44.244;22.530;2023-07-28T14:05:29;2.25;;;2.03;;
56997;SDS011;42890;44.244;22.530;2023-07-28T14:07:56;3.05;;;2.15;;
56997;SDS011;42890;44.244;22.530;2023-07-28T14:10:22;4.40;;;2.00;;
56997;SDS011;42890;44.244;22.530;2023-07-28T14:12:49;5.10;;;2.15;;
56997;SDS011;42890;44.244;22.530;2023-07-28T14:15:15;5.43;;;2.40;;
56997;SDS011;42890;44.244;22.530;2023-07-28T14:17:41;2.75;;;1.85;;
56997;SDS011;42890;44.244;22.530;2023-07-28T14:20:07;2.30;;;2.10;;
56997;SDS011;42890;44.244;22.530;2023-07-28T14:22:34;6.75;;;2.08;;
56997;SDS011;42890;44.244;22.530;2023-07-28T14:25:00;3.08;;;1.92;;
56997;SDS011;42890;44.244;22.530;2023-07-28T14:27:28;6.55;;;1.98;;
56997;SDS011;42890;44.244;22.530;2023-07-28T14:29:54;5.70;;;2.20;;
56997;SDS011;42890;44.244;22.530;2023-07-28T14:32:20;2.15;;;2.00;;
56997;SDS011;42890;44.244;22.530;2023-07-28T14:34:46;2.47;;;2.20;;
56997;SDS011;42890;44.244;22.530;2023-07-28T14:37:13;3.35;;;1.90;;
56997;SDS011;42890;44.244;22.530;2023-07-28T14:39:39;1.88;;;1.60;;
56997;SDS011;42890;44.244;22.530;2023-07-28T14:42:05;3.55;;;2.13;;
56997;SDS011;42890;44.244;22.530;2023-07-28T14:44:31;4.85;;;2.00;;
56997;SDS011;42890;44.244;22.530;2023-07-28T14:46:57;2.10;;;1.73;;